createdAt,value
2017-01-18T17:58:08.123Z,1038.57
2017-01-18T17:59:17.098Z,1038.58
2017-01-18T18:00:26.090Z,1038.56
2017-01-18T18:01:35.088Z,1038.57
2017-01-18T18:02:44.061Z,1038.56
2017-01-18T18:03:53.466Z,1038.56
2017-01-18T18:05:02.432Z,1038.55
2017-01-18T18:06:11.431Z,1038.58
2017-01-18T18:07:20.394Z,1038.57
2017-01-18T18:08:29.376Z,1038.57
2017-01-18T18:09:38.334Z,1038.57
2017-01-18T18:10:47.318Z,1038.55
2017-01-18T18:11:56.289Z,1038.57
2017-01-18T18:13:05.257Z,1038.54
2017-01-18T18:14:14.225Z,1038.53
2017-01-18T18:15:23.199Z,1038.51
2017-01-18T18:16:32.166Z,1038.5
2017-01-18T18:17:41.143Z,1038.48
2017-01-18T18:18:50.112Z,1038.49
2017-01-18T18:19:59.076Z,1038.45
2017-01-18T18:21:08.049Z,1038.48
2017-01-18T18:22:17.031Z,1038.47
2017-01-18T18:23:25.996Z,1038.43
2017-01-18T18:24:34.980Z,1038.47
2017-01-18T18:25:43.942Z,1038.47
2017-01-18T18:26:52.931Z,1038.43
2017-01-18T18:28:01.915Z,1038.44
2017-01-18T18:29:10.902Z,1038.4
2017-01-18T18:30:19.887Z,1038.38
2017-01-18T18:31:28.872Z,1038.41
2017-01-18T18:32:37.850Z,1038.35
2017-01-18T18:33:46.822Z,1038.34
2017-01-18T18:34:55.791Z,1038.35
2017-01-18T18:36:04.771Z,1038.37
2017-01-18T18:37:14.143Z,1038.4
2017-01-18T18:38:23.126Z,1038.39
2017-01-18T18:39:32.090Z,1038.4
2017-01-18T18:40:41.073Z,1038.41
2017-01-18T18:41:50.082Z,1038.38
2017-01-18T18:42:59.080Z,1038.36
2017-01-18T18:44:08.051Z,1038.35
2017-01-18T18:45:17.017Z,1038.34
2017-01-18T18:46:26.020Z,1038.33
2017-01-18T18:47:34.990Z,1038.37
2017-01-18T18:48:43.961Z,1038.36
2017-01-18T18:49:52.947Z,1038.36
2017-01-18T18:51:01.920Z,1038.33
2017-01-18T18:52:10.904Z,1038.34
2017-01-18T18:53:19.897Z,1038.3
2017-01-18T18:54:28.879Z,1038.32
2017-01-18T18:55:37.851Z,1038.37
2017-01-18T18:56:46.836Z,1038.35
2017-01-18T18:57:55.833Z,1038.4
2017-01-18T18:59:04.817Z,1038.45
2017-01-18T19:00:13.786Z,1038.44
2017-01-18T19:01:22.753Z,1038.44
2017-01-18T19:02:31.734Z,1038.44
2017-01-18T19:03:40.712Z,1038.41
2017-01-18T19:04:49.673Z,1038.41
2017-01-18T19:05:58.658Z,1038.4
2017-01-18T19:07:07.639Z,1038.47
2017-01-18T19:08:16.624Z,1038.4
2017-01-18T19:09:25.593Z,1038.44
2017-01-18T19:10:34.568Z,1038.45
2017-01-18T19:11:43.550Z,1038.46
2017-01-18T19:12:52.527Z,1038.46
2017-01-18T19:14:01.511Z,1038.46
2017-01-18T19:15:10.496Z,1038.47
2017-01-18T19:16:19.478Z,1038.53
2017-01-18T19:17:28.453Z,1038.51
2017-01-18T19:18:37.439Z,1038.51
2017-01-18T19:19:46.417Z,1038.52
2017-01-18T19:20:55.388Z,1038.5
2017-01-18T19:22:04.403Z,1038.49
2017-01-18T19:23:13.375Z,1038.41
2017-01-18T19:24:22.811Z,1038.46
2017-01-18T19:25:31.851Z,1038.47
2017-01-18T19:26:40.819Z,1038.49
2017-01-18T19:27:49.814Z,1038.5
2017-01-18T19:28:58.797Z,1038.51
2017-01-18T19:30:07.770Z,1038.51
2017-01-18T19:31:16.749Z,1038.53
2017-01-18T19:32:25.725Z,1038.52
2017-01-18T19:33:34.697Z,1038.52
2017-01-18T19:34:46.632Z,1038.51
2017-01-18T19:35:55.612Z,1038.53
2017-01-18T19:37:04.589Z,1038.56
2017-01-18T19:38:13.572Z,1038.55
2017-01-18T19:39:22.535Z,1038.57
2017-01-18T19:40:31.515Z,1038.57
2017-01-18T19:41:40.521Z,1038.46
2017-01-18T19:42:49.509Z,1038.46
2017-01-18T19:43:58.477Z,1038.45
2017-01-18T19:45:07.462Z,1038.43
2017-01-18T19:46:16.440Z,1038.4
2017-01-18T19:47:25.413Z,1038.39
2017-01-18T19:48:34.398Z,1038.35
2017-01-18T19:49:43.381Z,1038.37
2017-01-18T19:50:52.343Z,1038.37
2017-01-18T19:52:01.330Z,1038.37
2017-01-18T19:53:10.300Z,1038.36
2017-01-18T19:54:19.283Z,1038.29
2017-01-18T19:55:28.260Z,1038.3
2017-01-18T19:56:37.246Z,1038.3
2017-01-18T19:57:46.212Z,1038.3
2017-01-18T19:58:55.199Z,1038.3
2017-01-18T20:00:04.170Z,1038.29
2017-01-18T20:01:13.164Z,1038.27
2017-01-18T20:02:22.132Z,1038.3
2017-01-18T20:03:31.114Z,1038.26
2017-01-18T20:04:40.112Z,1038.3
2017-01-18T20:05:49.141Z,1038.31
2017-01-18T20:06:58.123Z,1038.27
2017-01-18T20:08:07.120Z,1038.29
2017-01-18T20:09:16.201Z,1038.21
2017-01-18T20:10:25.257Z,1038.25
2017-01-18T20:11:34.401Z,1038.22
2017-01-18T20:12:43.529Z,1038.21
2017-01-18T20:13:52.536Z,1038.26
2017-01-18T20:15:01.605Z,1038.25
2017-01-18T20:16:10.670Z,1038.24
2017-01-18T20:17:19.723Z,1038.28
2017-01-18T20:18:28.779Z,1038.22
2017-01-18T20:19:37.798Z,1038.21
2017-01-18T20:20:46.822Z,1038.18
2017-01-18T20:21:55.869Z,1038.18
2017-01-18T20:23:04.924Z,1038.22
2017-01-18T20:24:14.041Z,1038.14
2017-01-18T20:25:23.112Z,1038.17
2017-01-18T20:26:32.139Z,1038.16
2017-01-18T20:27:41.153Z,1038.13
2017-01-18T20:28:50.265Z,1038.19
2017-01-18T20:29:59.319Z,1038.19
2017-01-18T20:31:08.362Z,1038.19
2017-01-18T20:32:17.643Z,1038.18
2017-01-18T20:33:26.769Z,1038.19
2017-01-18T20:34:35.901Z,1038.2
2017-01-18T20:35:45.012Z,1038.19
2017-01-18T20:36:54.042Z,1038.19
2017-01-18T20:38:03.222Z,1038.23
2017-01-18T20:39:12.252Z,1038.25
2017-01-18T20:40:21.367Z,1038.24
2017-01-18T20:41:30.381Z,1038.29
2017-01-18T20:42:39.387Z,1038.32
2017-01-18T20:43:48.455Z,1038.28
2017-01-18T20:44:57.533Z,1038.29
2017-01-18T20:46:06.536Z,1038.28
2017-01-18T20:47:15.527Z,1038.28
2017-01-18T20:48:24.501Z,1038.3
2017-01-18T20:49:33.476Z,1038.31
2017-01-18T20:50:42.460Z,1038.35
2017-01-18T20:51:51.435Z,1038.33
2017-01-18T20:53:00.413Z,1038.31
2017-01-18T20:54:09.418Z,1038.27
2017-01-18T20:55:18.388Z,1038.28
2017-01-18T20:56:27.372Z,1038.29
2017-01-18T20:57:36.355Z,1038.29
2017-01-18T20:58:45.360Z,1038.28
2017-01-18T20:59:54.332Z,1038.28
2017-01-18T21:01:03.312Z,1038.27
2017-01-18T21:02:12.291Z,1038.24
2017-01-18T21:03:21.270Z,1038.22
2017-01-18T21:04:30.308Z,1038.2
2017-01-18T21:05:39.273Z,1038.23
2017-01-18T21:06:48.254Z,1038.27
2017-01-18T21:07:57.251Z,1038.24
2017-01-18T21:09:06.233Z,1038.3
2017-01-18T21:10:15.207Z,1038.27
2017-01-18T21:11:24.200Z,1038.2
2017-01-18T21:12:33.182Z,1038.19
2017-01-18T21:13:42.150Z,1038.18
2017-01-18T21:14:51.133Z,1038.21
2017-01-18T21:16:00.113Z,1038.25
2017-01-18T21:17:09.091Z,1038.25
2017-01-18T21:18:18.155Z,1038.13
2017-01-18T21:19:27.474Z,1038.16
2017-01-18T21:20:36.449Z,1038.09
2017-01-18T21:21:45.439Z,1038.12
2017-01-18T21:22:54.408Z,1038.14
2017-01-18T21:24:03.371Z,1038.16
2017-01-18T21:25:12.358Z,1038.18
2017-01-18T21:26:21.340Z,1038.19
2017-01-18T21:27:30.313Z,1038.19
2017-01-18T21:28:39.351Z,1038.22
2017-01-18T21:29:48.320Z,1038.23
2017-01-18T21:30:57.290Z,1038.26
2017-01-18T21:32:06.268Z,1038.25
2017-01-18T21:33:15.253Z,1038.25
2017-01-18T21:34:24.220Z,1038.27
2017-01-18T21:35:33.249Z,1038.25
2017-01-18T21:36:42.224Z,1038.18
2017-01-18T21:37:51.199Z,1038.2
2017-01-18T21:39:00.198Z,1038.22
2017-01-18T21:40:09.193Z,1038.19
2017-01-18T21:41:18.159Z,1038.14
2017-01-18T21:42:27.167Z,1038.15
2017-01-18T21:43:36.150Z,1038.13
2017-01-18T21:44:45.136Z,1038.14
2017-01-18T21:45:54.122Z,1038.13
2017-01-18T21:47:03.116Z,1038.15
2017-01-18T21:48:12.090Z,1038.16
2017-01-18T21:49:21.202Z,1038.16
2017-01-18T21:50:30.187Z,1038.17
2017-01-18T21:51:39.156Z,1038.12
2017-01-18T21:52:48.145Z,1038.13
2017-01-18T21:53:57.135Z,1038.14
2017-01-18T21:55:06.440Z,1038.13
2017-01-18T21:56:15.549Z,1038.13
2017-01-18T21:57:24.540Z,1038.12
2017-01-18T21:58:33.507Z,1038.13
2017-01-18T21:59:42.496Z,1038.1
2017-01-18T22:00:51.469Z,1038.1
2017-01-18T22:02:00.439Z,1038.13
2017-01-18T22:03:09.447Z,1038.14
2017-01-18T22:04:18.422Z,1038.14
2017-01-18T22:05:27.385Z,1038.13
2017-01-18T22:06:36.374Z,1038.13
2017-01-18T22:07:45.350Z,1038.07
2017-01-18T22:08:54.319Z,1038.13
2017-01-18T22:10:03.297Z,1038.14
2017-01-18T22:11:12.289Z,1038.14
2017-01-18T22:12:21.255Z,1038.1
2017-01-18T22:13:30.231Z,1038.05
2017-01-18T22:14:39.213Z,1038.06
2017-01-18T22:15:48.186Z,1038.07
2017-01-18T22:16:57.159Z,1038.07
2017-01-18T22:18:06.147Z,1038.08
2017-01-18T22:19:15.266Z,1038.09
2017-01-18T22:20:24.242Z,1038.09
2017-01-18T22:21:33.221Z,1038.04
2017-01-18T22:22:42.198Z,1038
2017-01-18T22:23:51.187Z,1038
2017-01-18T22:25:01.156Z,1037.97
2017-01-18T22:26:10.663Z,1038.01
2017-01-18T22:27:20.771Z,1037.97
2017-01-18T22:28:30.243Z,1037.91
2017-01-18T22:29:39.219Z,1037.92
2017-01-18T22:30:48.215Z,1037.95
2017-01-18T22:31:58.496Z,1037.93
2017-01-18T22:33:07.549Z,1037.95
2017-01-18T22:34:16.526Z,1037.94
2017-01-18T22:35:25.541Z,1037.92
2017-01-18T22:36:34.537Z,1037.91
2017-01-18T22:37:43.543Z,1037.89
2017-01-18T22:38:53.056Z,1037.85
2017-01-18T22:40:02.495Z,1037.86
2017-01-18T22:41:11.453Z,1037.9
2017-01-18T22:42:22.634Z,1037.92
2017-01-18T22:43:31.798Z,1037.92
2017-01-18T22:44:40.808Z,1037.92
2017-01-18T22:45:49.855Z,1037.94
2017-01-18T22:46:58.848Z,1037.96
2017-01-18T22:48:07.851Z,1037.93
2017-01-18T22:49:17.714Z,1037.95
2017-01-18T22:50:26.691Z,1037.93
2017-01-18T22:51:35.670Z,1037.92
2017-01-18T22:52:44.655Z,1037.87
2017-01-18T22:53:53.655Z,1037.83
2017-01-18T22:55:02.642Z,1037.86
2017-01-18T22:56:11.866Z,1037.81
2017-01-18T22:57:20.852Z,1037.83
2017-01-18T22:58:29.813Z,1037.86
2017-01-18T22:59:38.825Z,1037.86
2017-01-18T23:00:47.832Z,1037.86
2017-01-18T23:01:56.848Z,1037.89
2017-01-18T23:03:05.851Z,1037.87
2017-01-18T23:04:14.835Z,1037.9
2017-01-18T23:05:23.829Z,1037.91
2017-01-18T23:06:32.806Z,1037.91
2017-01-18T23:07:41.782Z,1037.9
2017-01-18T23:08:50.762Z,1037.92
2017-01-18T23:09:59.730Z,1037.93
2017-01-18T23:11:08.714Z,1037.91
2017-01-18T23:12:17.692Z,1037.89
2017-01-18T23:13:26.682Z,1037.87
2017-01-18T23:14:35.686Z,1037.8
2017-01-18T23:15:44.654Z,1037.88
2017-01-18T23:16:53.622Z,1037.83
2017-01-18T23:18:02.604Z,1037.79
2017-01-18T23:19:11.579Z,1037.74
2017-01-18T23:20:20.562Z,1037.73
2017-01-18T23:21:29.547Z,1037.73
2017-01-18T23:22:38.509Z,1037.77
2017-01-18T23:23:47.490Z,1037.81
2017-01-18T23:24:56.475Z,1037.84
2017-01-18T23:26:05.453Z,1037.81
2017-01-18T23:27:14.432Z,1037.8
2017-01-18T23:28:23.426Z,1037.8
2017-01-18T23:29:32.397Z,1037.86
2017-01-18T23:30:41.368Z,1037.9
2017-01-18T23:31:50.354Z,1037.89
2017-01-18T23:32:59.330Z,1037.84
2017-01-18T23:34:08.307Z,1037.86
2017-01-18T23:35:17.288Z,1037.84
2017-01-18T23:36:26.301Z,1037.87
2017-01-18T23:37:35.284Z,1037.86
2017-01-18T23:38:44.250Z,1037.85
2017-01-18T23:39:53.260Z,1037.78
2017-01-18T23:41:02.225Z,1037.77
2017-01-18T23:42:11.209Z,1037.71
2017-01-18T23:43:20.177Z,1037.73
2017-01-18T23:44:29.151Z,1037.75
2017-01-18T23:45:38.123Z,1037.8
2017-01-18T23:46:47.094Z,1037.83
2017-01-18T23:47:56.060Z,1037.81
2017-01-18T23:49:05.064Z,1037.73
2017-01-18T23:50:14.035Z,1037.7
2017-01-18T23:51:23.013Z,1037.72
2017-01-18T23:52:32.013Z,1037.73
2017-01-18T23:53:40.977Z,1037.7
2017-01-18T23:54:49.962Z,1037.75
2017-01-18T23:55:58.930Z,1037.78
2017-01-18T23:57:07.899Z,1037.78
2017-01-18T23:58:16.880Z,1037.82
2017-01-18T23:59:25.857Z,1037.83
